sensor_id;sensor_type;location;lat;lon;timestamp;P1;durP1;ratioP1;P2;durP2;ratioP2
65757;SDS011;52495;52.208;5.158;2023-05-24T00:02:19;14.05;;;3.75;;
65757;SDS011;52495;52.208;5.158;2023-05-24T00:04:47;14.05;;;3.58;;
65757;SDS011;52495;52.208;5.158;2023-05-24T00:07:15;11.35;;;3.20;;
65757;SDS011;52495;52.208;5.158;2023-05-24T00:09:41;13.38;;;3.38;;
65757;SDS011;52495;52.208;5.158;2023-05-24T00:12:08;17.27;;;3.53;;
65757;SDS011;52495;52.208;5.158;2023-05-24T00:14:36;11.27;;;2.80;;
65757;SDS011;52495;52.208;5.158;2023-05-24T00:17:03;16.95;;;4.00;;
65757;SDS011;52495;52.208;5.158;2023-05-24T00:19:30;10.45;;;3.45;;
65757;SDS011;52495;52.208;5.158;2023-05-24T00:21:57;14.20;;;3.13;;
65757;SDS011;52495;52.208;5.158;2023-05-24T00:24:23;11.90;;;3.83;;
65757;SDS011;52495;52.208;5.158;2023-05-24T00:26:50;16.73;;;3.90;;
65757;SDS011;52495;52.208;5.158;2023-05-24T00:29:17;13.52;;;3.78;;
65757;SDS011;52495;52.208;5.158;2023-05-24T00:31:45;11.48;;;3.40;;
65757;SDS011;52495;52.208;5.158;2023-05-24T00:34:12;17.55;;;3.72;;
65757;SDS011;52495;52.208;5.158;2023-05-24T00:36:38;14.57;;;3.67;;
65757;SDS011;52495;52.208;5.158;2023-05-24T00:39:07;16.05;;;3.80;;
65757;SDS011;52495;52.208;5.158;2023-05-24T00:41:34;10.60;;;3.45;;
65757;SDS011;52495;52.208;5.158;2023-05-24T00:44:01;12.35;;;3.33;;
65757;SDS011;52495;52.208;5.158;2023-05-24T00:46:28;8.13;;;2.90;;
65757;SDS011;52495;52.208;5.158;2023-05-24T00:48:58;13.48;;;3.22;;
65757;SDS011;52495;52.208;5.158;2023-05-24T00:51:25;14.32;;;3.45;;
65757;SDS011;52495;52.208;5.158;2023-05-24T00:53:53;11.02;;;3.50;;
65757;SDS011;52495;52.208;5.158;2023-05-24T00:56:20;15.10;;;3.90;;
65757;SDS011;52495;52.208;5.158;2023-05-24T00:58:47;11.23;;;3.25;;
65757;SDS011;52495;52.208;5.158;2023-05-24T01:01:15;17.02;;;3.83;;
65757;SDS011;52495;52.208;5.158;2023-05-24T01:03:43;13.23;;;3.80;;
65757;SDS011;52495;52.208;5.158;2023-05-24T01:06:12;11.00;;;3.75;;
65757;SDS011;52495;52.208;5.158;2023-05-24T01:08:42;12.48;;;3.70;;
65757;SDS011;52495;52.208;5.158;2023-05-24T01:11:24;16.20;;;3.90;;
65757;SDS011;52495;52.208;5.158;2023-05-24T01:13:57;13.55;;;3.97;;
65757;SDS011;52495;52.208;5.158;2023-05-24T01:16:35;15.98;;;3.70;;
65757;SDS011;52495;52.208;5.158;2023-05-24T01:19:24;15.05;;;3.97;;
65757;SDS011;52495;52.208;5.158;2023-05-24T01:22:16;13.45;;;3.20;;
65757;SDS011;52495;52.208;5.158;2023-05-24T01:24:52;12.15;;;3.92;;
65757;SDS011;52495;52.208;5.158;2023-05-24T01:27:29;10.85;;;4.07;;
65757;SDS011;52495;52.208;5.158;2023-05-24T01:29:59;11.32;;;4.43;;
65757;SDS011;52495;52.208;5.158;2023-05-24T01:32:26;16.30;;;4.22;;
65757;SDS011;52495;52.208;5.158;2023-05-24T01:34:54;15.43;;;3.63;;
65757;SDS011;52495;52.208;5.158;2023-05-24T01:37:20;11.55;;;3.70;;
65757;SDS011;52495;52.208;5.158;2023-05-24T01:39:47;10.18;;;3.90;;
65757;SDS011;52495;52.208;5.158;2023-05-24T01:42:17;17.02;;;4.38;;
65757;SDS011;52495;52.208;5.158;2023-05-24T01:44:54;13.73;;;3.80;;
65757;SDS011;52495;52.208;5.158;2023-05-24T01:47:27;13.93;;;4.10;;
65757;SDS011;52495;52.208;5.158;2023-05-24T01:50:06;12.27;;;3.80;;
65757;SDS011;52495;52.208;5.158;2023-05-24T01:52:39;12.43;;;3.53;;
65757;SDS011;52495;52.208;5.158;2023-05-24T01:55:10;11.55;;;3.53;;
65757;SDS011;52495;52.208;5.158;2023-05-24T01:57:39;10.23;;;3.85;;
65757;SDS011;52495;52.208;5.158;2023-05-24T02:00:11;11.32;;;3.65;;
65757;SDS011;52495;52.208;5.158;2023-05-24T02:02:40;14.30;;;3.90;;
65757;SDS011;52495;52.208;5.158;2023-05-24T02:05:08;16.77;;;3.97;;
65757;SDS011;52495;52.208;5.158;2023-05-24T02:07:35;15.23;;;4.45;;
65757;SDS011;52495;52.208;5.158;2023-05-24T02:10:02;13.10;;;3.58;;
65757;SDS011;52495;52.208;5.158;2023-05-24T02:12:29;13.02;;;4.07;;
65757;SDS011;52495;52.208;5.158;2023-05-24T02:14:56;13.13;;;4.55;;
65757;SDS011;52495;52.208;5.158;2023-05-24T02:17:24;10.05;;;4.35;;
65757;SDS011;52495;52.208;5.158;2023-05-24T02:19:51;11.52;;;4.32;;
65757;SDS011;52495;52.208;5.158;2023-05-24T02:22:18;12.00;;;3.47;;
65757;SDS011;52495;52.208;5.158;2023-05-24T02:24:46;10.25;;;3.85;;
65757;SDS011;52495;52.208;5.158;2023-05-24T02:27:13;12.55;;;3.85;;
65757;SDS011;52495;52.208;5.158;2023-05-24T02:29:40;15.23;;;3.92;;
65757;SDS011;52495;52.208;5.158;2023-05-24T02:32:07;12.70;;;4.07;;
65757;SDS011;52495;52.208;5.158;2023-05-24T02:34:35;11.32;;;4.00;;
65757;SDS011;52495;52.208;5.158;2023-05-24T02:37:02;9.52;;;3.30;;
65757;SDS011;52495;52.208;5.158;2023-05-24T02:39:30;10.77;;;3.75;;
65757;SDS011;52495;52.208;5.158;2023-05-24T02:41:57;9.35;;;3.70;;
65757;SDS011;52495;52.208;5.158;2023-05-24T02:44:24;12.52;;;3.95;;
65757;SDS011;52495;52.208;5.158;2023-05-24T02:46:51;11.13;;;3.15;;
65757;SDS011;52495;52.208;5.158;2023-05-24T02:49:17;10.85;;;3.13;;
65757;SDS011;52495;52.208;5.158;2023-05-24T02:51:45;9.15;;;3.58;;
65757;SDS011;52495;52.208;5.158;2023-05-24T02:54:12;12.82;;;3.50;;
65757;SDS011;52495;52.208;5.158;2023-05-24T02:56:42;14.77;;;4.60;;
65757;SDS011;52495;52.208;5.158;2023-05-24T02:59:09;9.70;;;3.90;;
65757;SDS011;52495;52.208;5.158;2023-05-24T03:01:37;11.43;;;3.55;;
65757;SDS011;52495;52.208;5.158;2023-05-24T03:04:05;8.88;;;3.22;;
65757;SDS011;52495;52.208;5.158;2023-05-24T03:06:31;13.18;;;3.72;;
65757;SDS011;52495;52.208;5.158;2023-05-24T03:09:00;13.77;;;3.85;;
65757;SDS011;52495;52.208;5.158;2023-05-24T03:11:28;10.55;;;4.05;;
65757;SDS011;52495;52.208;5.158;2023-05-24T03:13:57;12.02;;;3.53;;
65757;SDS011;52495;52.208;5.158;2023-05-24T03:16:24;11.05;;;2.97;;
65757;SDS011;52495;52.208;5.158;2023-05-24T03:18:50;8.02;;;3.28;;
65757;SDS011;52495;52.208;5.158;2023-05-24T03:21:20;12.63;;;3.80;;
65757;SDS011;52495;52.208;5.158;2023-05-24T03:23:47;11.50;;;2.83;;
65757;SDS011;52495;52.208;5.158;2023-05-24T03:26:16;8.23;;;3.80;;
65757;SDS011;52495;52.208;5.158;2023-05-24T03:28:44;14.05;;;3.72;;
65757;SDS011;52495;52.208;5.158;2023-05-24T03:31:11;13.15;;;3.47;;
65757;SDS011;52495;52.208;5.158;2023-05-24T03:33:38;13.25;;;3.30;;
65757;SDS011;52495;52.208;5.158;2023-05-24T03:36:05;9.35;;;3.10;;
65757;SDS011;52495;52.208;5.158;2023-05-24T03:38:32;11.40;;;3.42;;
65757;SDS011;52495;52.208;5.158;2023-05-24T03:40:59;9.75;;;3.10;;
65757;SDS011;52495;52.208;5.158;2023-05-24T03:43:28;10.25;;;3.13;;
65757;SDS011;52495;52.208;5.158;2023-05-24T03:45:59;10.90;;;3.30;;
65757;SDS011;52495;52.208;5.158;2023-05-24T03:48:26;9.05;;;3.42;;
65757;SDS011;52495;52.208;5.158;2023-05-24T03:50:53;8.93;;;3.40;;
65757;SDS011;52495;52.208;5.158;2023-05-24T03:53:20;9.90;;;3.25;;
65757;SDS011;52495;52.208;5.158;2023-05-24T03:55:47;10.20;;;3.90;;
65757;SDS011;52495;52.208;5.158;2023-05-24T03:58:13;8.68;;;4.68;;
65757;SDS011;52495;52.208;5.158;2023-05-24T04:00:42;13.82;;;4.00;;
65757;SDS011;52495;52.208;5.158;2023-05-24T04:03:09;8.00;;;3.47;;
65757;SDS011;52495;52.208;5.158;2023-05-24T04:05:37;9.43;;;3.17;;
65757;SDS011;52495;52.208;5.158;2023-05-24T04:08:04;16.17;;;10.93;;
65757;SDS011;52495;52.208;5.158;2023-05-24T04:10:31;13.45;;;4.70;;
65757;SDS011;52495;52.208;5.158;2023-05-24T04:12:57;9.70;;;3.70;;
65757;SDS011;52495;52.208;5.158;2023-05-24T04:15:25;12.10;;;4.03;;
65757;SDS011;52495;52.208;5.158;2023-05-24T04:17:53;11.32;;;3.85;;
65757;SDS011;52495;52.208;5.158;2023-05-24T04:20:20;12.25;;;3.95;;
65757;SDS011;52495;52.208;5.158;2023-05-24T04:22:49;13.10;;;5.13;;
65757;SDS011;52495;52.208;5.158;2023-05-24T04:25:16;11.38;;;4.45;;
65757;SDS011;52495;52.208;5.158;2023-05-24T04:27:43;13.73;;;4.07;;
65757;SDS011;52495;52.208;5.158;2023-05-24T04:30:12;11.80;;;3.75;;
65757;SDS011;52495;52.208;5.158;2023-05-24T04:32:40;11.48;;;4.07;;
65757;SDS011;52495;52.208;5.158;2023-05-24T04:35:10;10.13;;;3.80;;
65757;SDS011;52495;52.208;5.158;2023-05-24T04:37:37;10.35;;;4.72;;
65757;SDS011;52495;52.208;5.158;2023-05-24T04:40:05;11.98;;;4.28;;
65757;SDS011;52495;52.208;5.158;2023-05-24T04:42:33;10.82;;;4.57;;
65757;SDS011;52495;52.208;5.158;2023-05-24T04:45:00;12.57;;;4.68;;
65757;SDS011;52495;52.208;5.158;2023-05-24T04:47:27;15.68;;;4.97;;
65757;SDS011;52495;52.208;5.158;2023-05-24T04:49:54;18.55;;;5.45;;
65757;SDS011;52495;52.208;5.158;2023-05-24T04:52:22;13.05;;;4.82;;
65757;SDS011;52495;52.208;5.158;2023-05-24T04:54:49;16.23;;;5.28;;
65757;SDS011;52495;52.208;5.158;2023-05-24T04:57:16;11.98;;;4.72;;
65757;SDS011;52495;52.208;5.158;2023-05-24T04:59:43;13.07;;;5.25;;
65757;SDS011;52495;52.208;5.158;2023-05-24T05:02:10;16.05;;;5.22;;
65757;SDS011;52495;52.208;5.158;2023-05-24T05:04:36;17.50;;;5.45;;
65757;SDS011;52495;52.208;5.158;2023-05-24T05:07:03;13.57;;;5.75;;
65757;SDS011;52495;52.208;5.158;2023-05-24T05:09:31;18.38;;;5.65;;
65757;SDS011;52495;52.208;5.158;2023-05-24T05:11:58;23.10;;;6.03;;
65757;SDS011;52495;52.208;5.158;2023-05-24T05:14:25;24.58;;;6.68;;
65757;SDS011;52495;52.208;5.158;2023-05-24T05:16:52;17.75;;;6.60;;
65757;SDS011;52495;52.208;5.158;2023-05-24T05:19:18;27.80;;;7.85;;
65757;SDS011;52495;52.208;5.158;2023-05-24T05:21:45;21.65;;;6.38;;
65757;SDS011;52495;52.208;5.158;2023-05-24T05:24:13;20.45;;;6.88;;
65757;SDS011;52495;52.208;5.158;2023-05-24T05:26:42;16.27;;;5.30;;
65757;SDS011;52495;52.208;5.158;2023-05-24T05:29:08;17.13;;;6.22;;
65757;SDS011;52495;52.208;5.158;2023-05-24T05:31:35;21.60;;;6.55;;
65757;SDS011;52495;52.208;5.158;2023-05-24T05:34:02;19.83;;;6.63;;
65757;SDS011;52495;52.208;5.158;2023-05-24T05:36:28;19.42;;;7.05;;
65757;SDS011;52495;52.208;5.158;2023-05-24T05:38:56;27.77;;;7.88;;
65757;SDS011;52495;52.208;5.158;2023-05-24T05:41:23;19.38;;;7.18;;
65757;SDS011;52495;52.208;5.158;2023-05-24T05:43:51;17.90;;;6.03;;
65757;SDS011;52495;52.208;5.158;2023-05-24T05:46:18;21.80;;;7.28;;
65757;SDS011;52495;52.208;5.158;2023-05-24T05:48:46;21.35;;;6.97;;
65757;SDS011;52495;52.208;5.158;2023-05-24T05:51:13;18.42;;;6.03;;
65757;SDS011;52495;52.208;5.158;2023-05-24T05:53:40;19.80;;;6.47;;
65757;SDS011;52495;52.208;5.158;2023-05-24T05:56:06;20.50;;;7.05;;
65757;SDS011;52495;52.208;5.158;2023-05-24T05:58:33;25.15;;;7.93;;
65757;SDS011;52495;52.208;5.158;2023-05-24T06:01:01;19.85;;;6.47;;
65757;SDS011;52495;52.208;5.158;2023-05-24T06:03:28;17.40;;;6.55;;
65757;SDS011;52495;52.208;5.158;2023-05-24T06:05:55;12.85;;;4.78;;
65757;SDS011;52495;52.208;5.158;2023-05-24T06:08:22;21.02;;;6.10;;
65757;SDS011;52495;52.208;5.158;2023-05-24T06:10:49;17.75;;;5.68;;
65757;SDS011;52495;52.208;5.158;2023-05-24T06:13:15;15.05;;;4.70;;
65757;SDS011;52495;52.208;5.158;2023-05-24T06:15:42;17.08;;;5.85;;
65757;SDS011;52495;52.208;5.158;2023-05-24T06:18:10;19.00;;;4.68;;
65757;SDS011;52495;52.208;5.158;2023-05-24T06:20:37;20.20;;;5.40;;
65757;SDS011;52495;52.208;5.158;2023-05-24T06:23:04;18.00;;;4.80;;
65757;SDS011;52495;52.208;5.158;2023-05-24T06:25:31;18.55;;;4.72;;
65757;SDS011;52495;52.208;5.158;2023-05-24T06:27:58;18.48;;;4.28;;
65757;SDS011;52495;52.208;5.158;2023-05-24T06:30:25;17.10;;;3.55;;
65757;SDS011;52495;52.208;5.158;2023-05-24T06:32:52;13.05;;;4.35;;
65757;SDS011;52495;52.208;5.158;2023-05-24T06:35:20;20.75;;;4.00;;
65757;SDS011;52495;52.208;5.158;2023-05-24T06:37:47;18.33;;;4.38;;
65757;SDS011;52495;52.208;5.158;2023-05-24T06:40:13;13.57;;;3.53;;
65757;SDS011;52495;52.208;5.158;2023-05-24T06:42:40;16.38;;;3.63;;
65757;SDS011;52495;52.208;5.158;2023-05-24T06:45:07;15.82;;;3.95;;
65757;SDS011;52495;52.208;5.158;2023-05-24T06:47:35;14.57;;;4.00;;
65757;SDS011;52495;52.208;5.158;2023-05-24T06:50:02;15.68;;;4.60;;
65757;SDS011;52495;52.208;5.158;2023-05-24T06:52:31;17.50;;;3.53;;
65757;SDS011;52495;52.208;5.158;2023-05-24T06:54:58;16.88;;;3.28;;
65757;SDS011;52495;52.208;5.158;2023-05-24T06:57:25;11.82;;;3.85;;
65757;SDS011;52495;52.208;5.158;2023-05-24T06:59:51;13.88;;;3.95;;
65757;SDS011;52495;52.208;5.158;2023-05-24T07:02:18;14.43;;;3.38;;
65757;SDS011;52495;52.208;5.158;2023-05-24T07:04:50;14.07;;;3.15;;
65757;SDS011;52495;52.208;5.158;2023-05-24T07:07:18;13.15;;;4.00;;
65757;SDS011;52495;52.208;5.158;2023-05-24T07:09:47;16.45;;;3.92;;
65757;SDS011;52495;52.208;5.158;2023-05-24T07:12:14;12.05;;;2.78;;
65757;SDS011;52495;52.208;5.158;2023-05-24T07:14:40;11.95;;;3.28;;
65757;SDS011;52495;52.208;5.158;2023-05-24T07:17:07;15.73;;;3.70;;
65757;SDS011;52495;52.208;5.158;2023-05-24T07:19:34;11.18;;;3.20;;
65757;SDS011;52495;52.208;5.158;2023-05-24T07:22:01;14.70;;;3.55;;
65757;SDS011;52495;52.208;5.158;2023-05-24T07:24:28;11.23;;;3.20;;
65757;SDS011;52495;52.208;5.158;2023-05-24T07:26:56;14.50;;;3.13;;
65757;SDS011;52495;52.208;5.158;2023-05-24T07:29:23;18.42;;;4.53;;
65757;SDS011;52495;52.208;5.158;2023-05-24T07:31:50;8.23;;;2.28;;
65757;SDS011;52495;52.208;5.158;2023-05-24T07:34:17;8.80;;;2.70;;
65757;SDS011;52495;52.208;5.158;2023-05-24T07:36:45;10.73;;;3.83;;
65757;SDS011;52495;52.208;5.158;2023-05-24T07:39:12;16.13;;;4.43;;
65757;SDS011;52495;52.208;5.158;2023-05-24T07:41:40;10.27;;;3.20;;
65757;SDS011;52495;52.208;5.158;2023-05-24T07:44:08;13.00;;;3.63;;
65757;SDS011;52495;52.208;5.158;2023-05-24T07:46:36;12.63;;;3.70;;
65757;SDS011;52495;52.208;5.158;2023-05-24T07:49:02;14.38;;;3.75;;
65757;SDS011;52495;52.208;5.158;2023-05-24T07:51:29;13.75;;;3.95;;
65757;SDS011;52495;52.208;5.158;2023-05-24T07:53:58;21.13;;;3.40;;
65757;SDS011;52495;52.208;5.158;2023-05-24T07:56:25;13.77;;;3.60;;
65757;SDS011;52495;52.208;5.158;2023-05-24T07:58:52;14.20;;;3.60;;
65757;SDS011;52495;52.208;5.158;2023-05-24T08:01:24;13.77;;;3.17;;
65757;SDS011;52495;52.208;5.158;2023-05-24T08:03:53;15.55;;;3.83;;
65757;SDS011;52495;52.208;5.158;2023-05-24T08:06:20;19.00;;;4.15;;
65757;SDS011;52495;52.208;5.158;2023-05-24T08:08:48;13.35;;;4.60;;
65757;SDS011;52495;52.208;5.158;2023-05-24T08:11:15;17.05;;;4.05;;
65757;SDS011;52495;52.208;5.158;2023-05-24T08:13:42;18.73;;;4.20;;
65757;SDS011;52495;52.208;5.158;2023-05-24T08:16:09;10.20;;;2.92;;
65757;SDS011;52495;52.208;5.158;2023-05-24T08:18:37;14.82;;;3.20;;
65757;SDS011;52495;52.208;5.158;2023-05-24T08:21:04;13.70;;;3.85;;
65757;SDS011;52495;52.208;5.158;2023-05-24T08:23:32;10.60;;;3.40;;
65757;SDS011;52495;52.208;5.158;2023-05-24T08:25:58;10.75;;;3.03;;
65757;SDS011;52495;52.208;5.158;2023-05-24T08:28:25;12.80;;;2.80;;
65757;SDS011;52495;52.208;5.158;2023-05-24T08:30:53;15.52;;;3.50;;
65757;SDS011;52495;52.208;5.158;2023-05-24T08:33:20;18.75;;;3.67;;
65757;SDS011;52495;52.208;5.158;2023-05-24T08:35:48;15.35;;;3.88;;
65757;SDS011;52495;52.208;5.158;2023-05-24T08:38:16;10.40;;;3.30;;
65757;SDS011;52495;52.208;5.158;2023-05-24T08:40:43;19.33;;;4.07;;
65757;SDS011;52495;52.208;5.158;2023-05-24T08:43:10;16.52;;;3.40;;
65757;SDS011;52495;52.208;5.158;2023-05-24T08:45:37;8.55;;;3.03;;
65757;SDS011;52495;52.208;5.158;2023-05-24T08:48:05;13.88;;;2.80;;
65757;SDS011;52495;52.208;5.158;2023-05-24T08:50:32;11.30;;;3.13;;
65757;SDS011;52495;52.208;5.158;2023-05-24T08:53:01;11.77;;;3.28;;
65757;SDS011;52495;52.208;5.158;2023-05-24T08:55:30;13.27;;;3.85;;
65757;SDS011;52495;52.208;5.158;2023-05-24T08:57:57;12.43;;;3.17;;
65757;SDS011;52495;52.208;5.158;2023-05-24T09:00:25;10.52;;;2.92;;
65757;SDS011;52495;52.208;5.158;2023-05-24T09:02:52;10.25;;;3.08;;
65757;SDS011;52495;52.208;5.158;2023-05-24T09:05:19;12.02;;;3.47;;
65757;SDS011;52495;52.208;5.158;2023-05-24T09:07:47;9.85;;;2.78;;
65757;SDS011;52495;52.208;5.158;2023-05-24T09:10:17;10.57;;;2.88;;
65757;SDS011;52495;52.208;5.158;2023-05-24T09:12:47;14.15;;;4.38;;
65757;SDS011;52495;52.208;5.158;2023-05-24T09:15:19;11.32;;;4.00;;
65757;SDS011;52495;52.208;5.158;2023-05-24T09:17:46;7.43;;;2.17;;
65757;SDS011;52495;52.208;5.158;2023-05-24T09:20:12;10.75;;;2.83;;
65757;SDS011;52495;52.208;5.158;2023-05-24T09:22:40;10.10;;;3.22;;
65757;SDS011;52495;52.208;5.158;2023-05-24T09:25:08;9.23;;;2.67;;
65757;SDS011;52495;52.208;5.158;2023-05-24T09:27:50;12.68;;;3.60;;
65757;SDS011;52495;52.208;5.158;2023-05-24T09:30:18;12.07;;;3.42;;
65757;SDS011;52495;52.208;5.158;2023-05-24T09:32:54;13.95;;;4.35;;
65757;SDS011;52495;52.208;5.158;2023-05-24T09:35:22;11.60;;;3.55;;
65757;SDS011;52495;52.208;5.158;2023-05-24T09:37:52;13.50;;;3.42;;
65757;SDS011;52495;52.208;5.158;2023-05-24T09:40:21;12.07;;;3.08;;
65757;SDS011;52495;52.208;5.158;2023-05-24T09:42:53;11.23;;;3.00;;
65757;SDS011;52495;52.208;5.158;2023-05-24T09:45:28;11.25;;;3.90;;
65757;SDS011;52495;52.208;5.158;2023-05-24T09:47:54;12.98;;;3.70;;
65757;SDS011;52495;52.208;5.158;2023-05-24T09:50:22;15.10;;;4.07;;
65757;SDS011;52495;52.208;5.158;2023-05-24T09:52:49;9.02;;;3.00;;
65757;SDS011;52495;52.208;5.158;2023-05-24T09:55:18;14.27;;;3.65;;
65757;SDS011;52495;52.208;5.158;2023-05-24T09:57:48;11.40;;;3.80;;
65757;SDS011;52495;52.208;5.158;2023-05-24T10:00:21;10.13;;;3.38;;
65757;SDS011;52495;52.208;5.158;2023-05-24T10:02:59;11.88;;;3.22;;
65757;SDS011;52495;52.208;5.158;2023-05-24T10:05:27;8.65;;;2.85;;
65757;SDS011;52495;52.208;5.158;2023-05-24T10:07:54;10.30;;;3.50;;
65757;SDS011;52495;52.208;5.158;2023-05-24T10:10:23;10.82;;;3.50;;
65757;SDS011;52495;52.208;5.158;2023-05-24T10:12:52;13.10;;;3.83;;
65757;SDS011;52495;52.208;5.158;2023-05-24T10:15:22;10.02;;;3.92;;
65757;SDS011;52495;52.208;5.158;2023-05-24T10:17:49;11.80;;;3.83;;
65757;SDS011;52495;52.208;5.158;2023-05-24T10:20:16;15.35;;;3.38;;
65757;SDS011;52495;52.208;5.158;2023-05-24T10:22:44;11.90;;;4.30;;
65757;SDS011;52495;52.208;5.158;2023-05-24T10:25:13;11.48;;;3.50;;
65757;SDS011;52495;52.208;5.158;2023-05-24T10:27:42;13.07;;;4.22;;
65757;SDS011;52495;52.208;5.158;2023-05-24T10:30:13;7.95;;;3.53;;
65757;SDS011;52495;52.208;5.158;2023-05-24T10:32:48;7.85;;;2.95;;
65757;SDS011;52495;52.208;5.158;2023-05-24T10:35:16;14.65;;;3.70;;
65757;SDS011;52495;52.208;5.158;2023-05-24T10:37:45;11.93;;;3.30;;
65757;SDS011;52495;52.208;5.158;2023-05-24T10:40:15;14.68;;;3.10;;
65757;SDS011;52495;52.208;5.158;2023-05-24T10:42:44;10.45;;;2.85;;
65757;SDS011;52495;52.208;5.158;2023-05-24T10:45:30;9.60;;;3.20;;
65757;SDS011;52495;52.208;5.158;2023-05-24T10:48:01;10.05;;;3.42;;
65757;SDS011;52495;52.208;5.158;2023-05-24T10:50:35;10.88;;;3.05;;
65757;SDS011;52495;52.208;5.158;2023-05-24T10:53:11;11.25;;;3.15;;
65757;SDS011;52495;52.208;5.158;2023-05-24T10:55:51;9.88;;;3.58;;
65757;SDS011;52495;52.208;5.158;2023-05-24T10:58:21;13.52;;;3.50;;
65757;SDS011;52495;52.208;5.158;2023-05-24T11:00:50;11.43;;;3.38;;
65757;SDS011;52495;52.208;5.158;2023-05-24T11:03:18;9.32;;;2.92;;
65757;SDS011;52495;52.208;5.158;2023-05-24T11:05:49;10.98;;;3.17;;
65757;SDS011;52495;52.208;5.158;2023-05-24T11:08:21;10.52;;;3.60;;
65757;SDS011;52495;52.208;5.158;2023-05-24T11:10:49;8.73;;;3.00;;
65757;SDS011;52495;52.208;5.158;2023-05-24T11:13:17;7.95;;;2.95;;
65757;SDS011;52495;52.208;5.158;2023-05-24T11:15:51;9.50;;;2.70;;
65757;SDS011;52495;52.208;5.158;2023-05-24T11:18:22;10.23;;;3.28;;
65757;SDS011;52495;52.208;5.158;2023-05-24T11:20:49;8.68;;;3.08;;
65757;SDS011;52495;52.208;5.158;2023-05-24T11:23:16;9.13;;;2.60;;
65757;SDS011;52495;52.208;5.158;2023-05-24T11:25:45;13.45;;;4.25;;
65757;SDS011;52495;52.208;5.158;2023-05-24T11:28:12;9.07;;;3.00;;
65757;SDS011;52495;52.208;5.158;2023-05-24T11:30:40;7.95;;;2.63;;
65757;SDS011;52495;52.208;5.158;2023-05-24T11:33:13;10.60;;;2.78;;
65757;SDS011;52495;52.208;5.158;2023-05-24T11:35:42;8.73;;;3.17;;
65757;SDS011;52495;52.208;5.158;2023-05-24T11:38:09;11.55;;;3.03;;
65757;SDS011;52495;52.208;5.158;2023-05-24T11:40:38;8.50;;;2.60;;
65757;SDS011;52495;52.208;5.158;2023-05-24T11:43:10;7.22;;;2.55;;
65757;SDS011;52495;52.208;5.158;2023-05-24T11:45:39;12.20;;;3.47;;
65757;SDS011;52495;52.208;5.158;2023-05-24T11:48:07;8.15;;;3.45;;
65757;SDS011;52495;52.208;5.158;2023-05-24T11:50:37;13.52;;;2.83;;
65757;SDS011;52495;52.208;5.158;2023-05-24T11:53:08;7.13;;;2.47;;
65757;SDS011;52495;52.208;5.158;2023-05-24T11:55:35;13.60;;;2.97;;
65757;SDS011;52495;52.208;5.158;2023-05-24T11:58:05;9.77;;;3.25;;
65757;SDS011;52495;52.208;5.158;2023-05-24T12:00:37;12.15;;;3.00;;
65757;SDS011;52495;52.208;5.158;2023-05-24T12:03:04;10.60;;;2.63;;
65757;SDS011;52495;52.208;5.158;2023-05-24T12:05:33;10.63;;;3.08;;
65757;SDS011;52495;52.208;5.158;2023-05-24T12:08:02;11.75;;;3.45;;
65757;SDS011;52495;52.208;5.158;2023-05-24T12:10:34;7.63;;;2.65;;
65757;SDS011;52495;52.208;5.158;2023-05-24T12:13:01;11.65;;;3.05;;
65757;SDS011;52495;52.208;5.158;2023-05-24T12:15:29;11.10;;;3.10;;
65757;SDS011;52495;52.208;5.158;2023-05-24T12:17:57;10.70;;;2.75;;
65757;SDS011;52495;52.208;5.158;2023-05-24T12:20:26;11.00;;;2.92;;
65757;SDS011;52495;52.208;5.158;2023-05-24T12:22:54;14.20;;;3.17;;
65757;SDS011;52495;52.208;5.158;2023-05-24T12:25:22;8.77;;;2.72;;
65757;SDS011;52495;52.208;5.158;2023-05-24T12:27:53;7.75;;;2.45;;
65757;SDS011;52495;52.208;5.158;2023-05-24T12:30:21;13.32;;;3.08;;
65757;SDS011;52495;52.208;5.158;2023-05-24T12:32:48;8.38;;;2.92;;
65757;SDS011;52495;52.208;5.158;2023-05-24T12:35:18;10.38;;;3.20;;
65757;SDS011;52495;52.208;5.158;2023-05-24T12:37:45;7.10;;;2.50;;
65757;SDS011;52495;52.208;5.158;2023-05-24T12:40:13;10.38;;;2.78;;
65757;SDS011;52495;52.208;5.158;2023-05-24T12:42:42;6.03;;;2.08;;
65757;SDS011;52495;52.208;5.158;2023-05-24T12:45:12;7.55;;;2.58;;
65757;SDS011;52495;52.208;5.158;2023-05-24T12:47:39;7.45;;;2.17;;
65757;SDS011;52495;52.208;5.158;2023-05-24T12:50:06;6.85;;;2.25;;
65757;SDS011;52495;52.208;5.158;2023-05-24T12:52:34;6.95;;;2.45;;
65757;SDS011;52495;52.208;5.158;2023-05-24T12:55:01;9.75;;;2.80;;
65757;SDS011;52495;52.208;5.158;2023-05-24T12:57:28;11.18;;;3.08;;
65757;SDS011;52495;52.208;5.158;2023-05-24T12:59:55;9.40;;;2.47;;
65757;SDS011;52495;52.208;5.158;2023-05-24T13:02:23;13.63;;;3.03;;
65757;SDS011;52495;52.208;5.158;2023-05-24T13:04:51;5.35;;;2.20;;
65757;SDS011;52495;52.208;5.158;2023-05-24T13:07:20;8.25;;;2.65;;
65757;SDS011;52495;52.208;5.158;2023-05-24T13:09:47;6.45;;;2.25;;
65757;SDS011;52495;52.208;5.158;2023-05-24T13:12:14;6.18;;;2.13;;
65757;SDS011;52495;52.208;5.158;2023-05-24T13:14:41;8.25;;;2.20;;
65757;SDS011;52495;52.208;5.158;2023-05-24T13:17:09;10.15;;;2.85;;
65757;SDS011;52495;52.208;5.158;2023-05-24T13:19:37;6.38;;;2.47;;
65757;SDS011;52495;52.208;5.158;2023-05-24T13:22:04;7.90;;;2.85;;
65757;SDS011;52495;52.208;5.158;2023-05-24T13:24:31;8.00;;;2.28;;
65757;SDS011;52495;52.208;5.158;2023-05-24T13:26:58;9.82;;;3.00;;
65757;SDS011;52495;52.208;5.158;2023-05-24T13:29:25;8.68;;;2.75;;
65757;SDS011;52495;52.208;5.158;2023-05-24T13:31:52;6.32;;;2.13;;
65757;SDS011;52495;52.208;5.158;2023-05-24T13:34:20;5.75;;;2.40;;
65757;SDS011;52495;52.208;5.158;2023-05-24T13:36:50;6.38;;;2.30;;
65757;SDS011;52495;52.208;5.158;2023-05-24T13:39:19;6.13;;;2.00;;
65757;SDS011;52495;52.208;5.158;2023-05-24T13:41:46;6.53;;;2.53;;
65757;SDS011;52495;52.208;5.158;2023-05-24T13:44:13;6.45;;;2.28;;
65757;SDS011;52495;52.208;5.158;2023-05-24T13:46:41;6.63;;;2.35;;
65757;SDS011;52495;52.208;5.158;2023-05-24T13:49:09;6.50;;;2.15;;
65757;SDS011;52495;52.208;5.158;2023-05-24T13:51:37;7.03;;;2.47;;
65757;SDS011;52495;52.208;5.158;2023-05-24T13:54:05;6.13;;;2.45;;
65757;SDS011;52495;52.208;5.158;2023-05-24T13:56:33;9.65;;;3.13;;
65757;SDS011;52495;52.208;5.158;2023-05-24T13:59:00;3.90;;;2.08;;
65757;SDS011;52495;52.208;5.158;2023-05-24T14:01:28;10.55;;;2.95;;
65757;SDS011;52495;52.208;5.158;2023-05-24T14:03:56;9.32;;;2.92;;
65757;SDS011;52495;52.208;5.158;2023-05-24T14:06:23;7.65;;;2.50;;
65757;SDS011;52495;52.208;5.158;2023-05-24T14:08:50;8.88;;;2.85;;
65757;SDS011;52495;52.208;5.158;2023-05-24T14:11:18;10.55;;;3.15;;
65757;SDS011;52495;52.208;5.158;2023-05-24T14:13:46;7.03;;;2.90;;
65757;SDS011;52495;52.208;5.158;2023-05-24T14:16:14;12.75;;;3.65;;
65757;SDS011;52495;52.208;5.158;2023-05-24T14:18:41;7.25;;;2.70;;
65757;SDS011;52495;52.208;5.158;2023-05-24T14:21:08;7.80;;;2.63;;
65757;SDS011;52495;52.208;5.158;2023-05-24T14:23:36;8.25;;;3.08;;
65757;SDS011;52495;52.208;5.158;2023-05-24T14:26:04;6.40;;;2.15;;
65757;SDS011;52495;52.208;5.158;2023-05-24T14:28:32;6.82;;;2.42;;
65757;SDS011;52495;52.208;5.158;2023-05-24T14:30:59;9.93;;;3.00;;
65757;SDS011;52495;52.208;5.158;2023-05-24T14:33:26;7.25;;;2.22;;
65757;SDS011;52495;52.208;5.158;2023-05-24T14:35:54;6.78;;;2.72;;
65757;SDS011;52495;52.208;5.158;2023-05-24T14:38:21;7.70;;;2.50;;
65757;SDS011;52495;52.208;5.158;2023-05-24T14:40:49;6.05;;;2.85;;
65757;SDS011;52495;52.208;5.158;2023-05-24T14:43:16;6.88;;;2.70;;
65757;SDS011;52495;52.208;5.158;2023-05-24T14:45:45;5.35;;;1.83;;